sensor_id;sensor_type;location;lat;lon;timestamp;P1;durP1;ratioP1;P2;durP2;ratioP2
22254;SDS011;11296;42.684;23.322;2022-09-11T00:01:08;11.97;;;8.17;;
22254;SDS011;11296;42.684;23.322;2022-09-11T00:03:36;9.50;;;8.50;;
22254;SDS011;11296;42.684;23.322;2022-09-11T00:06:06;9.47;;;7.60;;
22254;SDS011;11296;42.684;23.322;2022-09-11T00:08:35;10.20;;;9.20;;
22254;SDS011;11296;42.684;23.322;2022-09-11T00:11:03;10.83;;;9.50;;
22254;SDS011;11296;42.684;23.322;2022-09-11T00:13:33;10.47;;;9.43;;
22254;SDS011;11296;42.684;23.322;2022-09-11T00:16:02;9.70;;;8.70;;
22254;SDS011;11296;42.684;23.322;2022-09-11T00:18:31;9.37;;;8.47;;
22254;SDS011;11296;42.684;23.322;2022-09-11T00:21:00;10.00;;;8.97;;
22254;SDS011;11296;42.684;23.322;2022-09-11T00:23:28;9.33;;;8.20;;
22254;SDS011;11296;42.684;23.322;2022-09-11T00:25:54;9.47;;;8.43;;
22254;SDS011;11296;42.684;23.322;2022-09-11T00:28:23;10.70;;;8.43;;
22254;SDS011;11296;42.684;23.322;2022-09-11T00:30:56;10.57;;;9.20;;
22254;SDS011;11296;42.684;23.322;2022-09-11T00:33:32;10.27;;;9.00;;
22254;SDS011;11296;42.684;23.322;2022-09-11T00:36:00;8.77;;;7.87;;
22254;SDS011;11296;42.684;23.322;2022-09-11T00:38:29;9.53;;;8.53;;
22254;SDS011;11296;42.684;23.322;2022-09-11T00:40:56;9.77;;;8.17;;
22254;SDS011;11296;42.684;23.322;2022-09-11T00:43:25;9.03;;;8.13;;
22254;SDS011;11296;42.684;23.322;2022-09-11T00:45:59;9.37;;;8.47;;
22254;SDS011;11296;42.684;23.322;2022-09-11T00:48:33;10.13;;;9.07;;
22254;SDS011;11296;42.684;23.322;2022-09-11T00:51:01;9.87;;;8.87;;
22254;SDS011;11296;42.684;23.322;2022-09-11T00:53:32;10.17;;;8.13;;
22254;SDS011;11296;42.684;23.322;2022-09-11T00:56:03;9.80;;;8.07;;
22254;SDS011;11296;42.684;23.322;2022-09-11T00:58:33;10.17;;;8.23;;
22254;SDS011;11296;42.684;23.322;2022-09-11T01:01:03;9.93;;;8.27;;
22254;SDS011;11296;42.684;23.322;2022-09-11T01:03:29;8.77;;;7.87;;
22254;SDS011;11296;42.684;23.322;2022-09-11T01:05:56;9.13;;;8.00;;
22254;SDS011;11296;42.684;23.322;2022-09-11T01:08:24;9.50;;;8.23;;
22254;SDS011;11296;42.684;23.322;2022-09-11T01:16:24;11.70;;;8.53;;
22254;SDS011;11296;42.684;23.322;2022-09-11T01:19:26;9.80;;;8.80;;
22254;SDS011;11296;42.684;23.322;2022-09-11T01:27:44;10.73;;;8.30;;
22254;SDS011;11296;42.684;23.322;2022-09-11T01:40:59;9.17;;;8.27;;
22254;SDS011;11296;42.684;23.322;2022-09-11T01:43:45;10.23;;;9.23;;
22254;SDS011;11296;42.684;23.322;2022-09-11T01:46:22;10.27;;;8.73;;
22254;SDS011;11296;42.684;23.322;2022-09-11T01:51:51;9.40;;;8.33;;
22254;SDS011;11296;42.684;23.322;2022-09-11T01:54:21;10.90;;;8.87;;
22254;SDS011;11296;42.684;23.322;2022-09-11T01:56:53;10.40;;;8.33;;
22254;SDS011;11296;42.684;23.322;2022-09-11T01:59:28;10.23;;;8.23;;
22254;SDS011;11296;42.684;23.322;2022-09-11T02:02:06;8.43;;;7.63;;
22254;SDS011;11296;42.684;23.322;2022-09-11T02:04:37;8.57;;;7.73;;
22254;SDS011;11296;42.684;23.322;2022-09-11T02:07:13;10.07;;;8.07;;
22254;SDS011;11296;42.684;23.322;2022-09-11T02:09:51;9.37;;;8.10;;
22254;SDS011;11296;42.684;23.322;2022-09-11T02:12:28;8.60;;;7.80;;
22254;SDS011;11296;42.684;23.322;2022-09-11T02:15:04;11.27;;;8.73;;
22254;SDS011;11296;42.684;23.322;2022-09-11T02:20:13;9.13;;;8.23;;
22254;SDS011;11296;42.684;23.322;2022-09-11T02:22:41;10.97;;;8.53;;
22254;SDS011;11296;42.684;23.322;2022-09-11T02:25:07;9.10;;;8.20;;
22254;SDS011;11296;42.684;23.322;2022-09-11T02:27:34;9.90;;;7.73;;
22254;SDS011;11296;42.684;23.322;2022-09-11T02:30:02;9.73;;;8.33;;
22254;SDS011;11296;42.684;23.322;2022-09-11T02:32:30;9.37;;;8.27;;
22254;SDS011;11296;42.684;23.322;2022-09-11T02:35:02;9.53;;;7.77;;
22254;SDS011;11296;42.684;23.322;2022-09-11T02:43:16;8.97;;;8.07;;
22254;SDS011;11296;42.684;23.322;2022-09-11T02:46:13;9.47;;;8.63;;
22254;SDS011;11296;42.684;23.322;2022-09-11T02:59:56;10.47;;;8.83;;
22254;SDS011;11296;42.684;23.322;2022-09-11T03:02:26;10.73;;;9.10;;
22254;SDS011;11296;42.684;23.322;2022-09-11T03:04:56;9.67;;;8.83;;
22254;SDS011;11296;42.684;23.322;2022-09-11T03:07:22;12.47;;;8.97;;
22254;SDS011;11296;42.684;23.322;2022-09-11T03:09:50;11.00;;;9.20;;
22254;SDS011;11296;42.684;23.322;2022-09-11T03:12:19;10.27;;;9.27;;
22254;SDS011;11296;42.684;23.322;2022-09-11T03:14:47;9.67;;;8.77;;
22254;SDS011;11296;42.684;23.322;2022-09-11T03:17:13;10.77;;;9.60;;
22254;SDS011;11296;42.684;23.322;2022-09-11T03:19:39;10.77;;;9.67;;
22254;SDS011;11296;42.684;23.322;2022-09-11T03:22:05;13.03;;;10.67;;
22254;SDS011;11296;42.684;23.322;2022-09-11T03:24:31;15.10;;;11.20;;
22254;SDS011;11296;42.684;23.322;2022-09-11T03:26:58;10.57;;;9.63;;
22254;SDS011;11296;42.684;23.322;2022-09-11T03:29:26;12.83;;;10.60;;
22254;SDS011;11296;42.684;23.322;2022-09-11T03:31:55;12.60;;;11.17;;
22254;SDS011;11296;42.684;23.322;2022-09-11T03:34:23;12.13;;;10.90;;
22254;SDS011;11296;42.684;23.322;2022-09-11T03:36:52;11.77;;;10.57;;
22254;SDS011;11296;42.684;23.322;2022-09-11T03:39:18;12.80;;;10.70;;
22254;SDS011;11296;42.684;23.322;2022-09-11T03:41:44;13.23;;;11.13;;
22254;SDS011;11296;42.684;23.322;2022-09-11T03:44:09;12.10;;;10.90;;
22254;SDS011;11296;42.684;23.322;2022-09-11T03:46:37;12.50;;;11.00;;
22254;SDS011;11296;42.684;23.322;2022-09-11T03:49:03;12.73;;;11.30;;
22254;SDS011;11296;42.684;23.322;2022-09-11T03:51:30;14.33;;;11.80;;
22254;SDS011;11296;42.684;23.322;2022-09-11T03:53:59;12.90;;;11.47;;
22254;SDS011;11296;42.684;23.322;2022-09-11T03:56:27;13.47;;;11.77;;
22254;SDS011;11296;42.684;23.322;2022-09-11T03:58:54;14.87;;;12.03;;
22254;SDS011;11296;42.684;23.322;2022-09-11T04:01:22;13.17;;;11.77;;
22254;SDS011;11296;42.684;23.322;2022-09-11T04:03:49;12.27;;;11.07;;
22254;SDS011;11296;42.684;23.322;2022-09-11T04:06:41;12.93;;;11.47;;
22254;SDS011;11296;42.684;23.322;2022-09-11T04:09:08;13.30;;;11.90;;
22254;SDS011;11296;42.684;23.322;2022-09-11T04:11:34;13.43;;;12.03;;
22254;SDS011;11296;42.684;23.322;2022-09-11T04:14:06;15.00;;;11.60;;
22254;SDS011;11296;42.684;23.322;2022-09-11T04:16:34;13.67;;;11.70;;
22254;SDS011;11296;42.684;23.322;2022-09-11T04:19:00;13.67;;;11.97;;
22254;SDS011;11296;42.684;23.322;2022-09-11T04:21:27;16.20;;;12.10;;
22254;SDS011;11296;42.684;23.322;2022-09-11T04:23:54;13.63;;;12.03;;
22254;SDS011;11296;42.684;23.322;2022-09-11T04:26:23;14.47;;;11.90;;
22254;SDS011;11296;42.684;23.322;2022-09-11T04:28:54;13.43;;;11.63;;
22254;SDS011;11296;42.684;23.322;2022-09-11T04:31:22;12.27;;;10.97;;
22254;SDS011;11296;42.684;23.322;2022-09-11T04:33:48;11.83;;;10.73;;
22254;SDS011;11296;42.684;23.322;2022-09-11T04:36:15;13.33;;;11.10;;
22254;SDS011;11296;42.684;23.322;2022-09-11T04:38:44;11.67;;;10.57;;
22254;SDS011;11296;42.684;23.322;2022-09-11T04:41:12;12.40;;;10.87;;
22254;SDS011;11296;42.684;23.322;2022-09-11T04:43:41;12.07;;;10.87;;
22254;SDS011;11296;42.684;23.322;2022-09-11T04:46:13;11.57;;;10.40;;
22254;SDS011;11296;42.684;23.322;2022-09-11T04:48:48;14.57;;;10.90;;
22254;SDS011;11296;42.684;23.322;2022-09-11T04:51:23;13.63;;;10.97;;
22254;SDS011;11296;42.684;23.322;2022-09-11T04:53:51;11.87;;;10.17;;
22254;SDS011;11296;42.684;23.322;2022-09-11T04:56:23;12.23;;;10.97;;
22254;SDS011;11296;42.684;23.322;2022-09-11T04:58:57;13.67;;;10.53;;
22254;SDS011;11296;42.684;23.322;2022-09-11T05:01:26;12.10;;;10.77;;
22254;SDS011;11296;42.684;23.322;2022-09-11T05:03:56;12.80;;;11.37;;
22254;SDS011;11296;42.684;23.322;2022-09-11T05:06:26;11.63;;;10.43;;
22254;SDS011;11296;42.684;23.322;2022-09-11T05:08:52;13.30;;;10.80;;
22254;SDS011;11296;42.684;23.322;2022-09-11T05:11:19;12.40;;;11.17;;
22254;SDS011;11296;42.684;23.322;2022-09-11T05:13:45;12.43;;;11.13;;
22254;SDS011;11296;42.684;23.322;2022-09-11T05:16:14;12.57;;;11.00;;
22254;SDS011;11296;42.684;23.322;2022-09-11T05:18:47;12.63;;;11.40;;
22254;SDS011;11296;42.684;23.322;2022-09-11T05:21:22;15.27;;;11.80;;
22254;SDS011;11296;42.684;23.322;2022-09-11T05:23:59;12.87;;;11.57;;
22254;SDS011;11296;42.684;23.322;2022-09-11T05:26:29;12.67;;;11.37;;
22254;SDS011;11296;42.684;23.322;2022-09-11T05:29:00;14.70;;;12.33;;
22254;SDS011;11296;42.684;23.322;2022-09-11T05:31:29;13.93;;;12.53;;
22254;SDS011;11296;42.684;23.322;2022-09-11T05:33:59;15.63;;;12.93;;
22254;SDS011;11296;42.684;23.322;2022-09-11T05:40:13;14.50;;;13.00;;
22254;SDS011;11296;42.684;23.322;2022-09-11T05:42:39;14.43;;;12.93;;
22254;SDS011;11296;42.684;23.322;2022-09-11T05:45:05;14.07;;;12.67;;
22254;SDS011;11296;42.684;23.322;2022-09-11T05:47:31;14.60;;;13.10;;
22254;SDS011;11296;42.684;23.322;2022-09-11T05:49:58;16.73;;;13.60;;
22254;SDS011;11296;42.684;23.322;2022-09-11T05:52:26;14.63;;;13.10;;
22254;SDS011;11296;42.684;23.322;2022-09-11T05:54:52;14.70;;;13.30;;
22254;SDS011;11296;42.684;23.322;2022-09-11T05:57:18;13.80;;;12.40;;
22254;SDS011;11296;42.684;23.322;2022-09-11T05:59:44;13.83;;;12.43;;
22254;SDS011;11296;42.684;23.322;2022-09-11T06:02:10;15.57;;;14.00;;
22254;SDS011;11296;42.684;23.322;2022-09-11T06:04:42;15.63;;;13.83;;
22254;SDS011;11296;42.684;23.322;2022-09-11T06:07:08;15.70;;;14.20;;
22254;SDS011;11296;42.684;23.322;2022-09-11T06:09:34;15.53;;;13.93;;
22254;SDS011;11296;42.684;23.322;2022-09-11T06:12:00;16.00;;;14.30;;
22254;SDS011;11296;42.684;23.322;2022-09-11T06:14:27;15.93;;;14.33;;
22254;SDS011;11296;42.684;23.322;2022-09-11T06:16:53;15.60;;;14.00;;
22254;SDS011;11296;42.684;23.322;2022-09-11T06:19:22;14.73;;;13.33;;
22254;SDS011;11296;42.684;23.322;2022-09-11T06:21:48;16.27;;;14.57;;
22254;SDS011;11296;42.684;23.322;2022-09-11T06:24:22;17.43;;;15.77;;
22254;SDS011;11296;42.684;23.322;2022-09-11T06:26:48;15.00;;;13.37;;
22254;SDS011;11296;42.684;23.322;2022-09-11T06:29:16;16.30;;;14.53;;
22254;SDS011;11296;42.684;23.322;2022-09-11T06:31:45;16.60;;;14.57;;
22254;SDS011;11296;42.684;23.322;2022-09-11T06:34:13;15.97;;;14.47;;
22254;SDS011;11296;42.684;23.322;2022-09-11T06:36:42;15.97;;;14.47;;
22254;SDS011;11296;42.684;23.322;2022-09-11T06:39:08;15.60;;;14.10;;
22254;SDS011;11296;42.684;23.322;2022-09-11T06:41:36;15.60;;;14.03;;
22254;SDS011;11296;42.684;23.322;2022-09-11T06:44:08;15.20;;;13.60;;
22254;SDS011;11296;42.684;23.322;2022-09-11T06:46:35;15.10;;;12.90;;
22254;SDS011;11296;42.684;23.322;2022-09-11T06:49:01;14.20;;;12.60;;
22254;SDS011;11296;42.684;23.322;2022-09-11T06:51:28;13.80;;;12.37;;
22254;SDS011;11296;42.684;23.322;2022-09-11T06:53:56;13.80;;;12.17;;
22254;SDS011;11296;42.684;23.322;2022-09-11T06:56:27;12.77;;;11.63;;
22254;SDS011;11296;42.684;23.322;2022-09-11T06:58:57;14.17;;;12.77;;
22254;SDS011;11296;42.684;23.322;2022-09-11T07:01:25;12.33;;;11.13;;
22254;SDS011;11296;42.684;23.322;2022-09-11T07:03:56;13.17;;;11.90;;
22254;SDS011;11296;42.684;23.322;2022-09-11T07:06:26;12.27;;;11.07;;
22254;SDS011;11296;42.684;23.322;2022-09-11T07:08:56;13.60;;;11.37;;
22254;SDS011;11296;42.684;23.322;2022-09-11T07:11:33;12.43;;;10.87;;
22254;SDS011;11296;42.684;23.322;2022-09-11T07:14:03;12.37;;;11.27;;
22254;SDS011;11296;42.684;23.322;2022-09-11T07:16:33;11.80;;;10.70;;
22254;SDS011;11296;42.684;23.322;2022-09-11T07:19:10;12.27;;;11.17;;
22254;SDS011;11296;42.684;23.322;2022-09-11T07:21:38;10.60;;;9.70;;
22254;SDS011;11296;42.684;23.322;2022-09-11T07:24:05;11.57;;;10.40;;
22254;SDS011;11296;42.684;23.322;2022-09-11T07:26:34;11.10;;;10.10;;
22254;SDS011;11296;42.684;23.322;2022-09-11T07:29:09;11.13;;;10.13;;
22254;SDS011;11296;42.684;23.322;2022-09-11T07:31:37;11.37;;;10.23;;
22254;SDS011;11296;42.684;23.322;2022-09-11T07:34:03;11.30;;;10.20;;
22254;SDS011;11296;42.684;23.322;2022-09-11T07:36:31;10.30;;;9.40;;
22254;SDS011;11296;42.684;23.322;2022-09-11T07:39:01;11.80;;;9.80;;
22254;SDS011;11296;42.684;23.322;2022-09-11T07:41:36;10.80;;;9.73;;
22254;SDS011;11296;42.684;23.322;2022-09-11T07:44:08;11.17;;;10.07;;
22254;SDS011;11296;42.684;23.322;2022-09-11T07:46:35;11.50;;;10.50;;
22254;SDS011;11296;42.684;23.322;2022-09-11T07:49:05;12.10;;;11.00;;
22254;SDS011;11296;42.684;23.322;2022-09-11T07:51:35;11.70;;;10.57;;
22254;SDS011;11296;42.684;23.322;2022-09-11T07:54:06;11.20;;;10.13;;
22254;SDS011;11296;42.684;23.322;2022-09-11T07:56:35;11.63;;;10.53;;
22254;SDS011;11296;42.684;23.322;2022-09-11T07:59:05;11.67;;;10.67;;
22254;SDS011;11296;42.684;23.322;2022-09-11T08:01:33;11.27;;;10.27;;
22254;SDS011;11296;42.684;23.322;2022-09-11T08:04:01;11.40;;;10.40;;
22254;SDS011;11296;42.684;23.322;2022-09-11T08:06:29;11.73;;;10.73;;
22254;SDS011;11296;42.684;23.322;2022-09-11T08:09:03;11.50;;;10.40;;
22254;SDS011;11296;42.684;23.322;2022-09-11T08:11:37;11.63;;;10.53;;
22254;SDS011;11296;42.684;23.322;2022-09-11T08:14:04;11.57;;;10.40;;
22254;SDS011;11296;42.684;23.322;2022-09-11T08:16:32;12.17;;;10.83;;
22254;SDS011;11296;42.684;23.322;2022-09-11T08:19:01;12.50;;;11.30;;
22254;SDS011;11296;42.684;23.322;2022-09-11T08:21:29;11.60;;;10.60;;
22254;SDS011;11296;42.684;23.322;2022-09-11T08:23:55;12.10;;;10.90;;
22254;SDS011;11296;42.684;23.322;2022-09-11T08:26:28;12.07;;;10.97;;
22254;SDS011;11296;42.684;23.322;2022-09-11T08:28:57;11.60;;;10.60;;
22254;SDS011;11296;42.684;23.322;2022-09-11T08:31:28;12.73;;;10.57;;
22254;SDS011;11296;42.684;23.322;2022-09-11T08:33:56;12.20;;;11.03;;
22254;SDS011;11296;42.684;23.322;2022-09-11T08:36:22;12.87;;;11.30;;
22254;SDS011;11296;42.684;23.322;2022-09-11T08:38:49;11.40;;;10.30;;
22254;SDS011;11296;42.684;23.322;2022-09-11T08:41:29;12.03;;;10.83;;
22254;SDS011;11296;42.684;23.322;2022-09-11T08:44:22;11.33;;;10.33;;
22254;SDS011;11296;42.684;23.322;2022-09-11T08:47:09;10.73;;;9.73;;
22254;SDS011;11296;42.684;23.322;2022-09-11T08:49:51;11.53;;;10.27;;
22254;SDS011;11296;42.684;23.322;2022-09-11T08:52:24;11.50;;;10.50;;
22254;SDS011;11296;42.684;23.322;2022-09-11T08:54:49;11.80;;;10.60;;
22254;SDS011;11296;42.684;23.322;2022-09-11T08:57:34;11.23;;;10.23;;
22254;SDS011;11296;42.684;23.322;2022-09-11T09:00:15;10.60;;;9.53;;
22254;SDS011;11296;42.684;23.322;2022-09-11T09:19:19;10.37;;;9.37;;
22254;SDS011;11296;42.684;23.322;2022-09-11T09:22:20;10.77;;;9.77;;
22254;SDS011;11296;42.684;23.322;2022-09-11T09:24:49;10.07;;;9.27;;
22254;SDS011;11296;42.684;23.322;2022-09-11T09:27:31;12.63;;;11.33;;
22254;SDS011;11296;42.684;23.322;2022-09-11T09:30:01;11.13;;;10.03;;
22254;SDS011;11296;42.684;23.322;2022-09-11T09:33:14;11.53;;;10.33;;
22254;SDS011;11296;42.684;23.322;2022-09-11T09:35:29;8.75;;;8.02;;
22254;SDS011;11296;42.684;23.322;2022-09-11T09:38:13;9.13;;;8.32;;
22254;SDS011;11296;42.684;23.322;2022-09-11T09:40:53;10.82;;;9.82;;
22254;SDS011;11296;42.684;23.322;2022-09-11T09:46:37;8.60;;;7.80;;
22254;SDS011;11296;42.684;23.322;2022-09-11T09:49:08;8.02;;;7.32;;
22254;SDS011;11296;42.684;23.322;2022-09-11T09:51:41;8.82;;;8.23;;
22254;SDS011;11296;42.684;23.322;2022-09-11T09:54:08;8.68;;;8.07;;
22254;SDS011;11296;42.684;23.322;2022-09-11T09:56:43;8.30;;;7.50;;
22254;SDS011;11296;42.684;23.322;2022-09-11T09:59:18;7.30;;;6.60;;
22254;SDS011;11296;42.684;23.322;2022-09-11T10:01:50;8.38;;;7.60;;
22254;SDS011;11296;42.684;23.322;2022-09-11T10:04:23;7.68;;;7.07;;
22254;SDS011;11296;42.684;23.322;2022-09-11T10:07:05;8.18;;;7.38;;
22254;SDS011;11296;42.684;23.322;2022-09-11T10:09:43;7.65;;;7.05;;
22254;SDS011;11296;42.684;23.322;2022-09-11T10:12:18;7.78;;;7.10;;
22254;SDS011;11296;42.684;23.322;2022-09-11T10:14:50;9.13;;;8.40;;
22254;SDS011;11296;42.684;23.322;2022-09-11T10:19:54;8.77;;;7.97;;
22254;SDS011;11296;42.684;23.322;2022-09-11T10:22:23;8.93;;;8.13;;
22254;SDS011;11296;42.684;23.322;2022-09-11T10:27:42;7.70;;;6.95;;
22254;SDS011;11296;42.684;23.322;2022-09-11T10:30:24;8.35;;;7.70;;
22254;SDS011;11296;42.684;23.322;2022-09-11T10:32:52;7.60;;;6.90;;
22254;SDS011;11296;42.684;23.322;2022-09-11T10:35:20;7.95;;;7.35;;
22254;SDS011;11296;42.684;23.322;2022-09-11T10:37:57;8.07;;;7.47;;
22254;SDS011;11296;42.684;23.322;2022-09-11T10:43:25;7.95;;;7.35;;
22254;SDS011;11296;42.684;23.322;2022-09-11T10:46:27;9.40;;;8.70;;
22254;SDS011;11296;42.684;23.322;2022-09-11T10:48:56;8.48;;;7.88;;
22254;SDS011;11296;42.684;23.322;2022-09-11T10:51:24;7.88;;;7.28;;
22254;SDS011;11296;42.684;23.322;2022-09-11T10:56:30;8.07;;;7.43;;
22254;SDS011;11296;42.684;23.322;2022-09-11T10:59:05;7.57;;;6.97;;
22254;SDS011;11296;42.684;23.322;2022-09-11T11:01:41;7.85;;;7.25;;
22254;SDS011;11296;42.684;23.322;2022-09-11T11:04:08;7.60;;;6.90;;
22254;SDS011;11296;42.684;23.322;2022-09-11T11:11:52;6.82;;;6.22;;
22254;SDS011;11296;42.684;23.322;2022-09-11T11:25:16;7.10;;;6.50;;
22254;SDS011;11296;42.684;23.322;2022-09-11T11:28:05;6.50;;;5.85;;
22254;SDS011;11296;42.684;23.322;2022-09-11T11:37:15;7.60;;;6.95;;
22254;SDS011;11296;42.684;23.322;2022-09-11T11:42:37;8.15;;;7.55;;
22254;SDS011;11296;42.684;23.322;2022-09-11T11:45:10;8.50;;;7.70;;
22254;SDS011;11296;42.684;23.322;2022-09-11T11:47:45;7.88;;;7.07;;
22254;SDS011;11296;42.684;23.322;2022-09-11T11:50:20;8.50;;;7.90;;
22254;SDS011;11296;42.684;23.322;2022-09-11T11:55:53;6.90;;;6.25;;
22254;SDS011;11296;42.684;23.322;2022-09-11T11:58:21;6.95;;;6.45;;
22254;SDS011;11296;42.684;23.322;2022-09-11T12:01:14;6.35;;;5.85;;
22254;SDS011;11296;42.684;23.322;2022-09-11T12:03:59;7.43;;;6.82;;
22254;SDS011;11296;42.684;23.322;2022-09-11T12:06:32;7.07;;;6.47;;
22254;SDS011;11296;42.684;23.322;2022-09-11T12:08:57;7.65;;;7.05;;
22254;SDS011;11296;42.684;23.322;2022-09-11T12:11:31;7.97;;;7.18;;
22254;SDS011;11296;42.684;23.322;2022-09-11T12:14:00;7.10;;;6.50;;
22254;SDS011;11296;42.684;23.322;2022-09-11T12:16:27;6.28;;;5.68;;
22254;SDS011;11296;42.684;23.322;2022-09-11T12:22:03;6.85;;;6.35;;
22254;SDS011;11296;42.684;23.322;2022-09-11T12:35:23;7.35;;;6.65;;
22254;SDS011;11296;42.684;23.322;2022-09-11T12:40:32;7.15;;;6.45;;
22254;SDS011;11296;42.684;23.322;2022-09-11T12:43:14;7.88;;;7.18;;
22254;SDS011;11296;42.684;23.322;2022-09-11T12:45:41;7.25;;;6.72;;
22254;SDS011;11296;42.684;23.322;2022-09-11T12:48:12;8.73;;;7.88;;
22254;SDS011;11296;42.684;23.322;2022-09-11T12:50:47;8.52;;;7.68;;
22254;SDS011;11296;42.684;23.322;2022-09-11T12:53:17;7.43;;;6.93;;
22254;SDS011;11296;42.684;23.322;2022-09-11T12:55:58;7.10;;;6.50;;
22254;SDS011;11296;42.684;23.322;2022-09-11T12:58:46;8.35;;;7.75;;
22254;SDS011;11296;42.684;23.322;2022-09-11T13:01:23;8.15;;;7.40;;
22254;SDS011;11296;42.684;23.322;2022-09-11T13:09:40;8.63;;;7.93;;
22254;SDS011;11296;42.684;23.322;2022-09-11T13:14:55;10.80;;;7.93;;
22254;SDS011;11296;42.684;23.322;2022-09-11T13:17:24;9.00;;;8.20;;
22254;SDS011;11296;42.684;23.322;2022-09-11T13:20:19;8.70;;;8.00;;
22254;SDS011;11296;42.684;23.322;2022-09-11T13:22:51;8.52;;;7.82;;
22254;SDS011;11296;42.684;23.322;2022-09-11T13:25:18;7.70;;;7.10;;
22254;SDS011;11296;42.684;23.322;2022-09-11T13:27:54;8.23;;;7.63;;
22254;SDS011;11296;42.684;23.322;2022-09-11T13:30:24;8.50;;;7.80;;
22254;SDS011;11296;42.684;23.322;2022-09-11T13:33:06;8.27;;;7.68;;
22254;SDS011;11296;42.684;23.322;2022-09-11T13:35:39;7.63;;;7.13;;
22254;SDS011;11296;42.684;23.322;2022-09-11T13:38:19;7.85;;;7.32;;
22254;SDS011;11296;42.684;23.322;2022-09-11T13:40:55;9.15;;;8.35;;
22254;SDS011;11296;42.684;23.322;2022-09-11T13:43:29;9.10;;;8.43;;
22254;SDS011;11296;42.684;23.322;2022-09-11T13:46:10;8.18;;;7.60;;
22254;SDS011;11296;42.684;23.322;2022-09-11T13:48:38;8.85;;;8.18;;
22254;SDS011;11296;42.684;23.322;2022-09-11T13:51:05;8.82;;;7.95;;
22254;SDS011;11296;42.684;23.322;2022-09-11T13:53:37;8.32;;;7.72;;
22254;SDS011;11296;42.684;23.322;2022-09-11T14:07:48;6.95;;;6.55;;
22254;SDS011;11296;42.684;23.322;2022-09-11T14:10:37;7.20;;;6.70;;
22254;SDS011;11296;42.684;23.322;2022-09-11T14:13:21;6.93;;;6.43;;
22254;SDS011;11296;42.684;23.322;2022-09-11T14:20:51;7.47;;;6.82;;
22254;SDS011;11296;42.684;23.322;2022-09-11T14:23:23;7.68;;;7.07;;
22254;SDS011;11296;42.684;23.322;2022-09-11T14:28:43;7.10;;;6.40;;
22254;SDS011;11296;42.684;23.322;2022-09-11T14:32:33;7.07;;;6.47;;
22254;SDS011;11296;42.684;23.322;2022-09-11T14:35:08;6.90;;;6.40;;
22254;SDS011;11296;42.684;23.322;2022-09-11T14:37:40;7.45;;;6.50;;
22254;SDS011;11296;42.684;23.322;2022-09-11T14:40:13;5.93;;;5.43;;
22254;SDS011;11296;42.684;23.322;2022-09-11T14:42:41;6.90;;;6.30;;
22254;SDS011;11296;42.684;23.322;2022-09-11T14:45:12;6.60;;;6.10;;
22254;SDS011;11296;42.684;23.322;2022-09-11T14:47:43;5.43;;;5.03;;
22254;SDS011;11296;42.684;23.322;2022-09-11T14:50:10;6.18;;;5.57;;
22254;SDS011;11296;42.684;23.322;2022-09-11T14:52:37;5.75;;;5.35;;
22254;SDS011;11296;42.684;23.322;2022-09-11T14:58:01;5.78;;;5.28;;
22254;SDS011;11296;42.684;23.322;2022-09-11T15:00:28;5.60;;;5.05;;
22254;SDS011;11296;42.684;23.322;2022-09-11T15:02:55;5.88;;;5.38;;
22254;SDS011;11296;42.684;23.322;2022-09-11T15:05:22;6.35;;;5.68;;
22254;SDS011;11296;42.684;23.322;2022-09-11T15:07:49;5.90;;;5.40;;
22254;SDS011;11296;42.684;23.322;2022-09-11T15:10:17;6.30;;;5.70;;
22254;SDS011;11296;42.684;23.322;2022-09-11T15:12:45;6.15;;;5.47;;
22254;SDS011;11296;42.684;23.322;2022-09-11T15:15:15;6.20;;;5.70;;
22254;SDS011;11296;42.684;23.322;2022-09-11T15:17:41;6.70;;;6.10;;
22254;SDS011;11296;42.684;23.322;2022-09-11T15:20:07;6.22;;;5.63;;
22254;SDS011;11296;42.684;23.322;2022-09-11T15:22:34;8.27;;;6.32;;
22254;SDS011;11296;42.684;23.322;2022-09-11T15:25:02;6.90;;;6.22;;
22254;SDS011;11296;42.684;23.322;2022-09-11T15:27:28;6.60;;;5.90;;
22254;SDS011;11296;42.684;23.322;2022-09-11T15:29:54;6.60;;;6.00;;
22254;SDS011;11296;42.684;23.322;2022-09-11T15:32:20;6.70;;;6.10;;
22254;SDS011;11296;42.684;23.322;2022-09-11T15:34:45;6.73;;;6.20;;
22254;SDS011;11296;42.684;23.322;2022-09-11T15:37:13;6.83;;;6.13;;
22254;SDS011;11296;42.684;23.322;2022-09-11T15:39:43;7.53;;;6.00;;
22254;SDS011;11296;42.684;23.322;2022-09-11T15:42:09;6.77;;;6.27;;
22254;SDS011;11296;42.684;23.322;2022-09-11T15:44:37;6.67;;;6.07;;
22254;SDS011;11296;42.684;23.322;2022-09-11T15:47:03;7.03;;;6.33;;
22254;SDS011;11296;42.684;23.322;2022-09-11T15:49:29;6.77;;;5.47;;
22254;SDS011;11296;42.684;23.322;2022-09-11T15:51:56;6.00;;;5.40;;
22254;SDS011;11296;42.684;23.322;2022-09-11T15:54:24;6.20;;;5.00;;
22254;SDS011;11296;42.684;23.322;2022-09-11T15:56:51;6.90;;;5.40;;
22254;SDS011;11296;42.684;23.322;2022-09-11T15:59:17;4.50;;;4.10;;
22254;SDS011;11296;42.684;23.322;2022-09-11T16:01:43;4.73;;;4.33;;
22254;SDS011;11296;42.684;23.322;2022-09-11T16:04:12;7.60;;;5.23;;
22254;SDS011;11296;42.684;23.322;2022-09-11T16:06:42;4.67;;;4.17;;
22254;SDS011;11296;42.684;23.322;2022-09-11T16:09:16;5.33;;;4.83;;
22254;SDS011;11296;42.684;23.322;2022-09-11T16:11:46;5.87;;;5.20;;
22254;SDS011;11296;42.684;23.322;2022-09-11T16:16:45;7.20;;;6.53;;
22254;SDS011;11296;42.684;23.322;2022-09-11T16:19:14;7.80;;;7.17;;
22254;SDS011;11296;42.684;23.322;2022-09-11T16:21:41;8.13;;;7.33;;
22254;SDS011;11296;42.684;23.322;2022-09-11T16:24:07;7.97;;;7.17;;
22254;SDS011;11296;42.684;23.322;2022-09-11T16:26:34;8.10;;;7.27;;
22254;SDS011;11296;42.684;23.322;2022-09-11T16:29:06;8.43;;;7.70;;
22254;SDS011;11296;42.684;23.322;2022-09-11T16:31:33;8.37;;;7.60;;
22254;SDS011;11296;42.684;23.322;2022-09-11T16:34:00;8.77;;;7.97;;
22254;SDS011;11296;42.684;23.322;2022-09-11T16:36:28;9.90;;;8.90;;
22254;SDS011;11296;42.684;23.322;2022-09-11T16:38:55;10.67;;;8.40;;
22254;SDS011;11296;42.684;23.322;2022-09-11T16:41:21;10.20;;;8.77;;
22254;SDS011;11296;42.684;23.322;2022-09-11T16:43:49;9.73;;;8.53;;
22254;SDS011;11296;42.684;23.322;2022-09-11T16:46:18;9.80;;;8.90;;
22254;SDS011;11296;42.684;23.322;2022-09-11T16:48:46;8.87;;;7.90;;
22254;SDS011;11296;42.684;23.322;2022-09-11T16:51:12;9.80;;;8.90;;
22254;SDS011;11296;42.684;23.322;2022-09-11T16:53:40;7.50;;;6.80;;
22254;SDS011;11296;42.684;23.322;2022-09-11T16:56:10;6.90;;;6.30;;
22254;SDS011;11296;42.684;23.322;2022-09-11T16:58:37;6.77;;;6.17;;
22254;SDS011;11296;42.684;23.322;2022-09-11T17:01:03;7.53;;;6.73;;
22254;SDS011;11296;42.684;23.322;2022-09-11T17:03:30;6.63;;;6.03;;
22254;SDS011;11296;42.684;23.322;2022-09-11T17:05:59;6.43;;;5.83;;
22254;SDS011;11296;42.684;23.322;2022-09-11T17:08:24;6.30;;;5.70;;
22254;SDS011;11296;42.684;23.322;2022-09-11T17:10:54;6.00;;;5.47;;
22254;SDS011;11296;42.684;23.322;2022-09-11T17:13:22;6.97;;;6.27;;
22254;SDS011;11296;42.684;23.322;2022-09-11T17:15:48;5.70;;;5.20;;
22254;SDS011;11296;42.684;23.322;2022-09-11T17:18:14;6.37;;;5.77;;
22254;SDS011;11296;42.684;23.322;2022-09-11T17:20:41;5.97;;;5.40;;
22254;SDS011;11296;42.684;23.322;2022-09-11T17:23:07;6.17;;;5.57;;